sensor_id;sensor_type;location;lat;lon;timestamp;P1;durP1;ratioP1;P2;durP2;ratioP2
66966;SDS011;53900;51.468;-2.586;2022-09-17T11:47:08;5.15;;;0.95;;
66966;SDS011;53900;51.468;-2.586;2022-09-17T11:52:08;4.70;;;0.68;;
66966;SDS011;53900;51.468;-2.586;2022-09-17T11:57:25;1.67;;;0.80;;
66966;SDS011;53900;51.468;-2.586;2022-09-17T11:59:57;2.90;;;0.60;;
66966;SDS011;53900;51.468;-2.586;2022-09-17T12:05:39;1.23;;;0.50;;
66966;SDS011;53900;51.468;-2.586;2022-09-17T12:08:09;2.30;;;0.60;;
66966;SDS011;53900;51.468;-2.586;2022-09-17T12:10:45;1.95;;;0.50;;
66966;SDS011;53900;51.468;-2.586;2022-09-17T12:13:44;2.58;;;0.90;;
66966;SDS011;53900;51.468;-2.586;2022-09-17T12:21:45;2.17;;;0.70;;
66966;SDS011;53900;51.468;-2.586;2022-09-17T12:24:26;1.23;;;0.55;;
66966;SDS011;53900;51.468;-2.586;2022-09-17T12:37:19;0.82;;;0.50;;
66966;SDS011;53900;51.468;-2.586;2022-09-17T12:45:58;1.42;;;0.60;;
66966;SDS011;53900;51.468;-2.586;2022-09-17T12:51:40;4.97;;;1.25;;
66966;SDS011;53900;51.468;-2.586;2022-09-17T12:59:43;1.35;;;0.52;;
66966;SDS011;53900;51.468;-2.586;2022-09-17T13:02:17;3.05;;;0.73;;
66966;SDS011;53900;51.468;-2.586;2022-09-17T13:24:26;3.00;;;0.60;;
66966;SDS011;53900;51.468;-2.586;2022-09-17T13:26:55;2.85;;;1.40;;
66966;SDS011;53900;51.468;-2.586;2022-09-17T13:32:58;0.75;;;0.57;;
66966;SDS011;53900;51.468;-2.586;2022-09-17T13:37:36;0.80;;;0.60;;
66966;SDS011;53900;51.468;-2.586;2022-09-17T13:40:28;4.78;;;1.13;;
66966;SDS011;53900;51.468;-2.586;2022-09-17T13:42:53;2.17;;;0.70;;
66966;SDS011;53900;51.468;-2.586;2022-09-17T13:45:30;1.67;;;0.60;;
66966;SDS011;53900;51.468;-2.586;2022-09-17T13:47:58;3.83;;;0.95;;
66966;SDS011;53900;51.468;-2.586;2022-09-17T13:52:51;2.15;;;0.85;;
66966;SDS011;53900;51.468;-2.586;2022-09-17T13:55:32;1.05;;;0.70;;
66966;SDS011;53900;51.468;-2.586;2022-09-17T13:57:59;4.20;;;0.85;;
66966;SDS011;53900;51.468;-2.586;2022-09-17T14:00:53;5.60;;;1.05;;
66966;SDS011;53900;51.468;-2.586;2022-09-17T14:04:04;0.98;;;0.50;;
66966;SDS011;53900;51.468;-2.586;2022-09-17T14:18:56;4.43;;;0.60;;
66966;SDS011;53900;51.468;-2.586;2022-09-17T14:21:30;4.53;;;0.68;;
66966;SDS011;53900;51.468;-2.586;2022-09-17T14:23:58;3.85;;;0.80;;
66966;SDS011;53900;51.468;-2.586;2022-09-17T14:31:36;0.95;;;0.60;;
66966;SDS011;53900;51.468;-2.586;2022-09-17T14:34:03;1.95;;;0.73;;
66966;SDS011;53900;51.468;-2.586;2022-09-17T14:36:29;3.80;;;0.70;;
66966;SDS011;53900;51.468;-2.586;2022-09-17T14:38:59;6.45;;;1.13;;
66966;SDS011;53900;51.468;-2.586;2022-09-17T14:41:25;6.47;;;0.95;;
66966;SDS011;53900;51.468;-2.586;2022-09-17T14:46:28;2.30;;;0.70;;
66966;SDS011;53900;51.468;-2.586;2022-09-17T14:48:55;4.03;;;0.82;;
66966;SDS011;53900;51.468;-2.586;2022-09-17T14:51:43;2.83;;;0.80;;
66966;SDS011;53900;51.468;-2.586;2022-09-17T14:54:13;0.85;;;0.40;;
66966;SDS011;53900;51.468;-2.586;2022-09-17T14:57:01;2.85;;;0.60;;
66966;SDS011;53900;51.468;-2.586;2022-09-17T14:59:47;6.18;;;0.70;;
66966;SDS011;53900;51.468;-2.586;2022-09-17T15:07:47;1.33;;;0.60;;
66966;SDS011;53900;51.468;-2.586;2022-09-17T15:10:18;2.75;;;0.80;;
66966;SDS011;53900;51.468;-2.586;2022-09-17T15:12:44;3.80;;;0.77;;
66966;SDS011;53900;51.468;-2.586;2022-09-17T15:15:18;4.68;;;0.80;;
66966;SDS011;53900;51.468;-2.586;2022-09-17T15:17:45;3.55;;;0.55;;
66966;SDS011;53900;51.468;-2.586;2022-09-17T15:20:13;3.13;;;0.60;;
66966;SDS011;53900;51.468;-2.586;2022-09-17T15:22:41;1.70;;;0.65;;
66966;SDS011;53900;51.468;-2.586;2022-09-17T15:25:21;2.55;;;0.68;;
66966;SDS011;53900;51.468;-2.586;2022-09-17T15:27:51;2.38;;;0.63;;
66966;SDS011;53900;51.468;-2.586;2022-09-17T15:30:21;1.08;;;0.65;;
66966;SDS011;53900;51.468;-2.586;2022-09-17T15:32:49;4.13;;;1.30;;
66966;SDS011;53900;51.468;-2.586;2022-09-17T15:35:20;4.35;;;1.05;;
66966;SDS011;53900;51.468;-2.586;2022-09-17T15:37:54;2.67;;;0.75;;
66966;SDS011;53900;51.468;-2.586;2022-09-17T15:43:00;2.90;;;0.60;;
66966;SDS011;53900;51.468;-2.586;2022-09-17T15:45:28;3.53;;;0.80;;
66966;SDS011;53900;51.468;-2.586;2022-09-17T15:47:59;0.88;;;0.52;;
66966;SDS011;53900;51.468;-2.586;2022-09-17T15:50:30;2.67;;;0.55;;
66966;SDS011;53900;51.468;-2.586;2022-09-17T15:55:43;0.50;;;0.50;;
66966;SDS011;53900;51.468;-2.586;2022-09-17T15:58:20;2.17;;;0.60;;
66966;SDS011;53900;51.468;-2.586;2022-09-17T16:00:46;9.27;;;1.02;;
66966;SDS011;53900;51.468;-2.586;2022-09-17T16:06:02;2.15;;;0.90;;
66966;SDS011;53900;51.468;-2.586;2022-09-17T16:08:32;4.65;;;0.90;;
66966;SDS011;53900;51.468;-2.586;2022-09-17T16:10:57;2.55;;;1.00;;
66966;SDS011;53900;51.468;-2.586;2022-09-17T16:13:23;2.22;;;0.60;;
66966;SDS011;53900;51.468;-2.586;2022-09-17T16:15:48;4.45;;;0.68;;
66966;SDS011;53900;51.468;-2.586;2022-09-17T16:18:14;5.40;;;1.83;;
66966;SDS011;53900;51.468;-2.586;2022-09-17T16:20:39;3.08;;;0.75;;
66966;SDS011;53900;51.468;-2.586;2022-09-17T16:23:05;3.33;;;0.80;;
66966;SDS011;53900;51.468;-2.586;2022-09-17T16:25:30;2.90;;;0.90;;
66966;SDS011;53900;51.468;-2.586;2022-09-17T16:28:03;2.70;;;0.68;;
66966;SDS011;53900;51.468;-2.586;2022-09-17T16:30:32;3.58;;;1.13;;
66966;SDS011;53900;51.468;-2.586;2022-09-17T16:32:57;2.22;;;0.60;;
66966;SDS011;53900;51.468;-2.586;2022-09-17T16:35:24;1.95;;;0.70;;
66966;SDS011;53900;51.468;-2.586;2022-09-17T16:37:51;1.13;;;0.70;;
66966;SDS011;53900;51.468;-2.586;2022-09-17T16:40:17;2.35;;;0.90;;
66966;SDS011;53900;51.468;-2.586;2022-09-17T16:42:43;2.97;;;0.90;;
66966;SDS011;53900;51.468;-2.586;2022-09-17T16:45:09;2.97;;;0.80;;
66966;SDS011;53900;51.468;-2.586;2022-09-17T16:47:35;2.17;;;0.75;;
66966;SDS011;53900;51.468;-2.586;2022-09-17T16:50:02;2.17;;;0.82;;
66966;SDS011;53900;51.468;-2.586;2022-09-17T16:52:33;0.70;;;0.60;;
66966;SDS011;53900;51.468;-2.586;2022-09-17T16:54:59;1.67;;;0.52;;
66966;SDS011;53900;51.468;-2.586;2022-09-17T16:57:25;1.27;;;0.70;;
66966;SDS011;53900;51.468;-2.586;2022-09-17T16:59:50;2.67;;;0.90;;
66966;SDS011;53900;51.468;-2.586;2022-09-17T17:02:15;0.82;;;0.60;;
66966;SDS011;53900;51.468;-2.586;2022-09-17T17:04:41;2.33;;;0.85;;
66966;SDS011;53900;51.468;-2.586;2022-09-17T17:07:06;5.72;;;0.77;;
66966;SDS011;53900;51.468;-2.586;2022-09-17T17:09:33;2.70;;;0.80;;
66966;SDS011;53900;51.468;-2.586;2022-09-17T17:11:58;3.25;;;0.80;;
66966;SDS011;53900;51.468;-2.586;2022-09-17T17:14:23;1.85;;;0.63;;
66966;SDS011;53900;51.468;-2.586;2022-09-17T17:16:49;2.60;;;0.70;;
66966;SDS011;53900;51.468;-2.586;2022-09-17T17:19:14;6.28;;;0.82;;
66966;SDS011;53900;51.468;-2.586;2022-09-17T17:21:40;3.83;;;0.98;;
66966;SDS011;53900;51.468;-2.586;2022-09-17T17:24:05;7.65;;;0.90;;
66966;SDS011;53900;51.468;-2.586;2022-09-17T17:26:31;2.25;;;0.80;;
66966;SDS011;53900;51.468;-2.586;2022-09-17T17:28:57;1.92;;;0.70;;
66966;SDS011;53900;51.468;-2.586;2022-09-17T17:31:22;1.83;;;0.70;;
66966;SDS011;53900;51.468;-2.586;2022-09-17T17:33:48;0.98;;;0.60;;
66966;SDS011;53900;51.468;-2.586;2022-09-17T17:36:13;1.15;;;0.60;;
66966;SDS011;53900;51.468;-2.586;2022-09-17T17:38:39;4.70;;;1.00;;
66966;SDS011;53900;51.468;-2.586;2022-09-17T17:41:08;2.00;;;0.90;;
66966;SDS011;53900;51.468;-2.586;2022-09-17T17:43:35;1.65;;;0.90;;
66966;SDS011;53900;51.468;-2.586;2022-09-17T17:46:00;2.63;;;0.85;;
66966;SDS011;53900;51.468;-2.586;2022-09-17T17:48:26;3.30;;;0.90;;
66966;SDS011;53900;51.468;-2.586;2022-09-17T17:50:52;2.15;;;0.75;;
66966;SDS011;53900;51.468;-2.586;2022-09-17T17:53:17;2.00;;;1.15;;
66966;SDS011;53900;51.468;-2.586;2022-09-17T17:55:43;2.85;;;1.77;;
66966;SDS011;53900;51.468;-2.586;2022-09-17T17:58:14;6.22;;;1.55;;
66966;SDS011;53900;51.468;-2.586;2022-09-17T18:00:40;3.33;;;1.50;;
66966;SDS011;53900;51.468;-2.586;2022-09-17T18:03:05;2.55;;;1.30;;
66966;SDS011;53900;51.468;-2.586;2022-09-17T18:05:30;4.75;;;1.30;;
66966;SDS011;53900;51.468;-2.586;2022-09-17T18:07:56;5.68;;;1.60;;
66966;SDS011;53900;51.468;-2.586;2022-09-17T18:10:21;7.30;;;1.75;;
66966;SDS011;53900;51.468;-2.586;2022-09-17T18:12:48;3.45;;;1.83;;
66966;SDS011;53900;51.468;-2.586;2022-09-17T18:15:14;6.55;;;1.70;;
66966;SDS011;53900;51.468;-2.586;2022-09-17T18:17:40;3.22;;;1.63;;
66966;SDS011;53900;51.468;-2.586;2022-09-17T18:20:05;3.33;;;1.05;;
66966;SDS011;53900;51.468;-2.586;2022-09-17T18:22:31;4.82;;;1.30;;
66966;SDS011;53900;51.468;-2.586;2022-09-17T18:24:56;4.28;;;1.30;;
66966;SDS011;53900;51.468;-2.586;2022-09-17T18:27:21;3.88;;;1.33;;
66966;SDS011;53900;51.468;-2.586;2022-09-17T18:29:47;2.90;;;1.35;;
66966;SDS011;53900;51.468;-2.586;2022-09-17T18:32:12;3.53;;;1.63;;
66966;SDS011;53900;51.468;-2.586;2022-09-17T18:34:38;6.32;;;1.70;;
66966;SDS011;53900;51.468;-2.586;2022-09-17T18:37:05;4.72;;;1.83;;
66966;SDS011;53900;51.468;-2.586;2022-09-17T18:39:30;8.95;;;2.38;;
66966;SDS011;53900;51.468;-2.586;2022-09-17T18:41:56;5.38;;;2.05;;
66966;SDS011;53900;51.468;-2.586;2022-09-17T18:44:21;5.25;;;2.10;;
66966;SDS011;53900;51.468;-2.586;2022-09-17T18:46:47;6.30;;;3.30;;
66966;SDS011;53900;51.468;-2.586;2022-09-17T18:49:14;5.90;;;2.45;;
66966;SDS011;53900;51.468;-2.586;2022-09-17T18:51:39;7.75;;;1.77;;
66966;SDS011;53900;51.468;-2.586;2022-09-17T18:54:05;8.27;;;2.70;;
66966;SDS011;53900;51.468;-2.586;2022-09-17T18:56:31;15.85;;;6.20;;
66966;SDS011;53900;51.468;-2.586;2022-09-17T18:58:57;9.50;;;4.38;;
66966;SDS011;53900;51.468;-2.586;2022-09-17T19:01:24;10.48;;;5.25;;
66966;SDS011;53900;51.468;-2.586;2022-09-17T19:03:52;8.20;;;4.60;;
66966;SDS011;53900;51.468;-2.586;2022-09-17T19:06:21;8.10;;;3.92;;
66966;SDS011;53900;51.468;-2.586;2022-09-17T19:08:47;8.70;;;4.00;;
66966;SDS011;53900;51.468;-2.586;2022-09-17T19:11:13;6.80;;;3.60;;
66966;SDS011;53900;51.468;-2.586;2022-09-17T19:13:42;6.97;;;4.15;;
66966;SDS011;53900;51.468;-2.586;2022-09-17T19:16:09;11.05;;;5.75;;
66966;SDS011;53900;51.468;-2.586;2022-09-17T19:18:35;11.60;;;5.13;;
66966;SDS011;53900;51.468;-2.586;2022-09-17T19:21:09;13.00;;;4.60;;
66966;SDS011;53900;51.468;-2.586;2022-09-17T19:23:40;6.97;;;4.20;;
66966;SDS011;53900;51.468;-2.586;2022-09-17T19:28:36;7.38;;;3.65;;
66966;SDS011;53900;51.468;-2.586;2022-09-17T19:31:02;10.02;;;4.30;;
66966;SDS011;53900;51.468;-2.586;2022-09-17T19:33:31;9.55;;;6.15;;
66966;SDS011;53900;51.468;-2.586;2022-09-17T19:36:00;12.23;;;5.05;;
66966;SDS011;53900;51.468;-2.586;2022-09-17T19:38:27;8.88;;;3.75;;
66966;SDS011;53900;51.468;-2.586;2022-09-17T19:40:56;8.80;;;3.25;;
66966;SDS011;53900;51.468;-2.586;2022-09-17T19:45:48;2.97;;;1.88;;
66966;SDS011;53900;51.468;-2.586;2022-09-17T19:48:13;7.85;;;2.05;;
66966;SDS011;53900;51.468;-2.586;2022-09-17T19:50:49;7.30;;;2.92;;
66966;SDS011;53900;51.468;-2.586;2022-09-17T19:53:15;4.38;;;2.10;;
66966;SDS011;53900;51.468;-2.586;2022-09-17T19:55:41;5.20;;;2.15;;
66966;SDS011;53900;51.468;-2.586;2022-09-17T19:58:06;4.95;;;1.80;;
66966;SDS011;53900;51.468;-2.586;2022-09-17T20:00:32;4.70;;;1.73;;
66966;SDS011;53900;51.468;-2.586;2022-09-17T20:02:59;4.93;;;1.55;;
66966;SDS011;53900;51.468;-2.586;2022-09-17T20:05:27;2.28;;;1.30;;
66966;SDS011;53900;51.468;-2.586;2022-09-17T20:07:53;6.40;;;1.70;;
66966;SDS011;53900;51.468;-2.586;2022-09-17T20:10:18;4.93;;;1.92;;
66966;SDS011;53900;51.468;-2.586;2022-09-17T20:12:43;8.13;;;1.83;;
66966;SDS011;53900;51.468;-2.586;2022-09-17T20:15:09;6.35;;;1.80;;
66966;SDS011;53900;51.468;-2.586;2022-09-17T20:17:34;4.97;;;1.83;;
66966;SDS011;53900;51.468;-2.586;2022-09-17T20:20:00;4.90;;;2.65;;
66966;SDS011;53900;51.468;-2.586;2022-09-17T20:22:25;3.90;;;1.50;;
66966;SDS011;53900;51.468;-2.586;2022-09-17T20:24:51;2.97;;;1.40;;
66966;SDS011;53900;51.468;-2.586;2022-09-17T20:27:16;3.60;;;1.75;;
66966;SDS011;53900;51.468;-2.586;2022-09-17T20:29:42;7.20;;;1.70;;
66966;SDS011;53900;51.468;-2.586;2022-09-17T20:32:07;5.25;;;1.80;;
66966;SDS011;53900;51.468;-2.586;2022-09-17T20:34:32;5.97;;;1.60;;
66966;SDS011;53900;51.468;-2.586;2022-09-17T20:36:58;9.25;;;2.17;;
66966;SDS011;53900;51.468;-2.586;2022-09-17T20:39:24;6.30;;;1.80;;
66966;SDS011;53900;51.468;-2.586;2022-09-17T20:41:49;4.55;;;1.50;;
66966;SDS011;53900;51.468;-2.586;2022-09-17T20:44:15;6.10;;;1.88;;
66966;SDS011;53900;51.468;-2.586;2022-09-17T20:46:41;5.85;;;1.80;;
66966;SDS011;53900;51.468;-2.586;2022-09-17T20:49:07;6.07;;;1.77;;
66966;SDS011;53900;51.468;-2.586;2022-09-17T20:51:32;4.95;;;1.50;;
66966;SDS011;53900;51.468;-2.586;2022-09-17T20:53:58;5.43;;;1.33;;
66966;SDS011;53900;51.468;-2.586;2022-09-17T20:56:26;5.43;;;1.73;;
66966;SDS011;53900;51.468;-2.586;2022-09-17T20:58:54;4.07;;;1.70;;
66966;SDS011;53900;51.468;-2.586;2022-09-17T21:01:23;10.20;;;2.53;;
66966;SDS011;53900;51.468;-2.586;2022-09-17T21:03:50;6.07;;;2.60;;
66966;SDS011;53900;51.468;-2.586;2022-09-17T21:06:24;5.03;;;1.75;;
66966;SDS011;53900;51.468;-2.586;2022-09-17T21:08:57;9.27;;;1.88;;
66966;SDS011;53900;51.468;-2.586;2022-09-17T21:11:24;3.38;;;2.00;;
66966;SDS011;53900;51.468;-2.586;2022-09-17T21:13:50;5.40;;;1.77;;
66966;SDS011;53900;51.468;-2.586;2022-09-17T21:16:16;4.88;;;1.80;;
66966;SDS011;53900;51.468;-2.586;2022-09-17T21:18:41;6.45;;;1.90;;
66966;SDS011;53900;51.468;-2.586;2022-09-17T21:21:11;5.55;;;1.70;;
66966;SDS011;53900;51.468;-2.586;2022-09-17T21:23:38;3.35;;;1.67;;
66966;SDS011;53900;51.468;-2.586;2022-09-17T21:26:11;3.97;;;2.03;;
66966;SDS011;53900;51.468;-2.586;2022-09-17T21:28:45;4.88;;;1.92;;
66966;SDS011;53900;51.468;-2.586;2022-09-17T21:31:15;7.70;;;2.13;;
66966;SDS011;53900;51.468;-2.586;2022-09-17T21:33:43;7.30;;;2.20;;
66966;SDS011;53900;51.468;-2.586;2022-09-17T21:36:13;4.32;;;1.88;;
66966;SDS011;53900;51.468;-2.586;2022-09-17T21:38:39;6.60;;;1.65;;
66966;SDS011;53900;51.468;-2.586;2022-09-17T21:41:12;4.15;;;1.60;;
66966;SDS011;53900;51.468;-2.586;2022-09-17T21:43:39;4.40;;;1.40;;
66966;SDS011;53900;51.468;-2.586;2022-09-17T21:46:06;7.90;;;1.45;;
66966;SDS011;53900;51.468;-2.586;2022-09-17T21:48:34;2.60;;;1.05;;
66966;SDS011;53900;51.468;-2.586;2022-09-17T21:51:04;3.33;;;0.90;;
66966;SDS011;53900;51.468;-2.586;2022-09-17T21:53:31;5.93;;;1.00;;
66966;SDS011;53900;51.468;-2.586;2022-09-17T21:56:01;5.95;;;1.17;;
66966;SDS011;53900;51.468;-2.586;2022-09-17T21:58:27;2.33;;;0.95;;
66966;SDS011;53900;51.468;-2.586;2022-09-17T22:00:53;4.28;;;1.00;;
66966;SDS011;53900;51.468;-2.586;2022-09-17T22:03:18;1.63;;;1.20;;
66966;SDS011;53900;51.468;-2.586;2022-09-17T22:05:44;5.90;;;1.00;;
66966;SDS011;53900;51.468;-2.586;2022-09-17T22:08:09;3.78;;;1.02;;
66966;SDS011;53900;51.468;-2.586;2022-09-17T22:10:34;6.55;;;1.30;;
66966;SDS011;53900;51.468;-2.586;2022-09-17T22:13:00;4.00;;;1.13;;
66966;SDS011;53900;51.468;-2.586;2022-09-17T22:15:25;5.55;;;0.85;;
66966;SDS011;53900;51.468;-2.586;2022-09-17T22:17:51;4.60;;;1.23;;
66966;SDS011;53900;51.468;-2.586;2022-09-17T22:20:17;4.32;;;1.10;;
66966;SDS011;53900;51.468;-2.586;2022-09-17T22:22:43;3.90;;;1.15;;
66966;SDS011;53900;51.468;-2.586;2022-09-17T22:25:09;3.08;;;1.30;;
66966;SDS011;53900;51.468;-2.586;2022-09-17T22:27:34;6.28;;;1.42;;
66966;SDS011;53900;51.468;-2.586;2022-09-17T22:30:00;3.05;;;1.30;;
66966;SDS011;53900;51.468;-2.586;2022-09-17T22:32:25;3.53;;;1.40;;
66966;SDS011;53900;51.468;-2.586;2022-09-17T22:34:52;3.97;;;1.35;;
66966;SDS011;53900;51.468;-2.586;2022-09-17T22:37:18;3.78;;;1.23;;
66966;SDS011;53900;51.468;-2.586;2022-09-17T22:39:44;3.83;;;1.20;;
66966;SDS011;53900;51.468;-2.586;2022-09-17T22:42:09;2.15;;;1.08;;
66966;SDS011;53900;51.468;-2.586;2022-09-17T22:44:34;5.13;;;1.45;;
66966;SDS011;53900;51.468;-2.586;2022-09-17T22:47:00;6.20;;;1.33;;
66966;SDS011;53900;51.468;-2.586;2022-09-17T22:49:25;2.60;;;0.98;;
66966;SDS011;53900;51.468;-2.586;2022-09-17T22:51:51;5.70;;;1.20;;
66966;SDS011;53900;51.468;-2.586;2022-09-17T22:54:16;5.18;;;1.25;;
66966;SDS011;53900;51.468;-2.586;2022-09-17T22:56:42;2.90;;;1.52;;
66966;SDS011;53900;51.468;-2.586;2022-09-17T22:59:09;6.80;;;1.45;;
66966;SDS011;53900;51.468;-2.586;2022-09-17T23:01:35;4.90;;;1.10;;
66966;SDS011;53900;51.468;-2.586;2022-09-17T23:04:01;4.15;;;1.02;;
66966;SDS011;53900;51.468;-2.586;2022-09-17T23:06:29;3.75;;;1.20;;
66966;SDS011;53900;51.468;-2.586;2022-09-17T23:08:55;1.85;;;1.10;;
66966;SDS011;53900;51.468;-2.586;2022-09-17T23:11:22;3.50;;;1.30;;
66966;SDS011;53900;51.468;-2.586;2022-09-17T23:13:52;5.82;;;0.93;;
66966;SDS011;53900;51.468;-2.586;2022-09-17T23:16:21;5.97;;;1.52;;
66966;SDS011;53900;51.468;-2.586;2022-09-17T23:18:46;3.53;;;1.25;;
66966;SDS011;53900;51.468;-2.586;2022-09-17T23:21:13;3.08;;;1.10;;
66966;SDS011;53900;51.468;-2.586;2022-09-17T23:23:41;4.25;;;1.10;;
66966;SDS011;53900;51.468;-2.586;2022-09-17T23:26:12;4.15;;;1.20;;
66966;SDS011;53900;51.468;-2.586;2022-09-17T23:28:39;6.78;;;1.40;;
66966;SDS011;53900;51.468;-2.586;2022-09-17T23:31:08;3.33;;;1.40;;
66966;SDS011;53900;51.468;-2.586;2022-09-17T23:36:07;7.28;;;1.63;;
66966;SDS011;53900;51.468;-2.586;2022-09-17T23:38:37;4.68;;;1.90;;
66966;SDS011;53900;51.468;-2.586;2022-09-17T23:43:47;6.90;;;1.80;;
66966;SDS011;53900;51.468;-2.586;2022-09-17T23:46:14;5.13;;;2.25;;
66966;SDS011;53900;51.468;-2.586;2022-09-17T23:48:40;6.15;;;1.75;;
66966;SDS011;53900;51.468;-2.586;2022-09-17T23:51:06;4.55;;;1.60;;
66966;SDS011;53900;51.468;-2.586;2022-09-17T23:53:32;6.63;;;1.50;;
66966;SDS011;53900;51.468;-2.586;2022-09-17T23:55:58;4.10;;;1.55;;
66966;SDS011;53900;51.468;-2.586;2022-09-17T23:58:24;3.08;;;1.75;;
